< < Back
Terminal Aerodrome Forecast


Current Version              Previous Versions:   1  2  3  4  5  6  7  8  9  

Terminal Aerodrome Forecast

788
FTUS42 KFFC 180300 AAA
TAFCSG
TAF AMD
KCSG 180331Z 1804/1824 09007KT P6SM BKN035
     FM180700 06011KT P6SM VCSH BKN025
     FM181000 07012KT 5SM SHRA OVC014
     FM181600 06014G24KT 4SM SHRA BR OVC010=

Latest METAR

103
SAUS70 KWBC 180800
MTRCSG
METAR KCSG 180751Z AUTO 10005KT 6SM RA OVC048 14/08 A3025 RMK AO2 LTG
DSNT E RAB32 SLP242 P0001 T01390083


USA.gov is the U.S. government's official web portal to all federal, state and local government web resources and services.